Badger, Minnesota
Current Conditions -  °F | °C
As of 6:15 AM on Sunday 23 Nov 2014 (Local Time) from KROX Reporting Station
Haze Haze  
Wind Chill: 29°   Ceiling: 400
Heat Index: 36°   Visibility: 2.5mi
Dew Point: 30°   Wind: 9mph
Humidity: 81%   Direction: 190°S
Pressure: 29.37"   Gusts: NA
Location:  48.78°N, 96.01°W
Report Text: KROX 231215Z AUTO 19008KT 2 1/2SM HZ OVC004 02/M01 A2937 RMK AO2
Loading
Personal Weather Stations






























Interactive Weather Map New forecast layout! Learn more

10-Day Weather Forecast

Advertisements
Track Severe Weather on mobile